Flight Track Log - Related Links

Times and Time Zones

All times are in EDT time to prevent confusion due to time zone crossing. See the RPA3321 flight status page for this flight to view local times or setup timezone preferences in your user account.

Time Position Orientation Groundspeed Altitude Reporting Facility
EDT Latitude Longitude Course Direction KTS MPH feet Rate Location/Type
Thu 05:48:03 AM 42.7694 -73.8089 169° South 150 173 1,600  Level Boston Center
Thu 05:48:39 AM 42.7922 -73.8208 339° North 165 190 2,700 2,766 Climbing Boston Center
Thu 05:50:24 AM 42.8700 -73.9331 313° West 269 310 8,100 3,127 Climbing Boston Center
Thu 05:51:00 AM 42.4273 -74.0872 180° South  Level Estimated
Thu 05:51:24 AM 42.8667 -74.0264 267° West 238 274 11,300  Level Boston Center
Thu 05:52:00 AM 42.3467 -74.1581 170° South  Level Estimated
Thu 05:52:24 AM 42.8036 -74.0531 197° South 180 207 12,700  Level Boston Center
Thu 05:53:00 AM 42.2661 -74.2287 169° South  Level Estimated
Thu 05:53:24 AM 42.7167 -74.0142 162° South 197 227 15,600  Level Boston Center
Thu 05:54:24 AM 42.6236 -73.9722 162° South 291 335 17,800 2,150 Climbing Boston Center
Thu 05:55:24 AM 42.5239 -73.9303 163° South 338 389 19,900 2,300 Climbing Boston Center
Thu 05:56:24 AM 42.4225 -73.8886 163° South 370 426 22,400 2,150 Climbing Boston Center
Thu 05:57:24 AM 42.3164 -73.8778 176° South 381 438 24,200 1,700 Climbing Boston Center
Thu 05:58:24 AM 42.2039 -73.8722 178° South 393 452 25,800 1,650 Climbing Boston Center
Thu 05:59:24 AM 42.0889 -73.8919 187° South 409 471 27,500 1,100 Climbing Boston Center
Thu 06:00:24 AM 41.9778 -73.9369 197° South 409 471 28,000 227 Climbing Boston Center
Thu 06:01:36 AM 41.8606 -73.9817 196° South 419 482 28,000  Level Boston Center
Thu 06:03:12 AM 41.6550 -74.0639 197° South 422 486 28,000  Level New York Center
Thu 06:04:13 AM 41.5308 -74.1131 197° South 427 491 28,000  Level New York Center
Thu 06:05:12 AM 41.4172 -74.1572 196° South 427 491 28,000  Level New York Center
Thu 06:06:12 AM 41.3011 -74.2039 197° South 427 491 28,000  Level New York Center
Thu 06:07:13 AM 41.1833 -74.2447 195° South 432 497 28,000  Level New York Center
Thu 06:08:14 AM 41.0675 -74.2911 197° South 439 505 28,000  Level New York Center
Thu 06:09:13 AM 40.9536 -74.3372 197° South 439 505 28,000  Level New York Center
Thu 06:10:14 AM 40.8431 -74.4056 205° Southwest 439 505 28,000  Level New York Center
Thu 06:11:12 AM 40.7561 -74.5269 227° Southwest 439 505 28,000 -300 Level New York Center
Thu 06:12:14 AM 40.6708 -74.6453 226° Southwest 439 505 27,400 -1,050 Descending New York Center
Thu 06:13:12 AM 40.5881 -74.7581 226° Southwest 444 511 25,900 -1,576 Descending New York Center
Thu 06:14:12 AM 40.5050 -74.8733 227° Southwest 444 511 24,300 -1,438 Descending New York Center
Thu 06:15:13 AM 40.4261 -74.9833 227° Southwest 436 502 23,000 -645 Descending New York Center
Thu 06:16:13 AM 40.3450 -75.0928 226° Southwest 430 495 23,000  Level New York Center
Thu 06:17:13 AM 40.2639 -75.1992 225° Southwest 430 495 23,000  Level New York Center
Thu 06:18:13 AM 40.1867 -75.3083 227° Southwest 424 488 23,000 -250 Level New York Center
Thu 06:19:13 AM 40.1053 -75.4169 226° Southwest 419 482 22,500 -496 Descending New York Center
Thu 06:20:14 AM 40.0283 -75.5231 227° Southwest 419 482 22,000 -252 Descending New York Center
Thu 06:21:12 AM 39.9508 -75.6342 228° Southwest 414 476 22,000  Level New York Center
Thu 06:22:14 AM 39.8792 -75.7483 231° Southwest 414 476 22,000  Level New York Center
Thu 06:23:12 AM 39.8078 -75.8594 230° Southwest 414 476 22,000 -1,007 Level New York Center
Thu 06:24:43 AM 39.7000 -76.0167 228° Southwest 365 420 19,500 -1,791 Descending Potomac TRACON
Thu 06:26:00 AM 39.6399 -76.1869 237° Southwest  Level FlightAware Approximate
Thu 06:26:43 AM 39.5833 -76.2167 237° Southwest 351 404 15,700  Level Potomac TRACON
Thu 06:28:00 AM 39.5059 -76.3620 212° Southwest  Level FlightAware Approximate
Thu 06:29:38 AM 39.4000 -76.4667 180° South 325 374 10,600  Level Potomac TRACON
Thu 06:30:38 AM 39.3333 -76.5333 218° Southwest 306 352 10,000 -300 Descending Potomac TRACON
Thu 06:31:38 AM 39.2500 -76.5833 205° Southwest 290 334 10,000  Level Potomac TRACON
Thu 06:32:26 AM 39.2000 -76.6333 218° Southwest 282 325 10,000  Level Potomac TRACON
Thu 06:33:26 AM 39.1500 -76.7000 226° Southwest 278 320 10,000  Level Potomac TRACON
Thu 06:34:26 AM 39.0833 -76.7667 218° Southwest 276 318 10,000  Level Potomac TRACON
Thu 06:35:00 AM 38.8662 -76.9333 180° South  Level FlightAware Approximate
Thu 06:35:26 AM 39.0333 -76.8333 226° Southwest 277 319 10,000  Level Potomac TRACON
Thu 06:36:20 AM 38.9833 -76.8833 218° Southwest 273 314 8,600 -1,579 Descending Potomac TRACON
Thu 06:37:20 AM 38.9167 -76.9333 210° Southwest 268 308 7,000 -842 Descending Potomac TRACON
Thu 06:38:14 AM 38.8667 -76.9500 195° South 220 253 7,000 -474 Level Potomac TRACON
Thu 06:39:14 AM 38.8000 -76.9500 180° South 186 214 6,100 -1,000 Descending Potomac TRACON
Thu 06:40:08 AM 38.7667 -76.9500 180° South 180 207 5,100 -1,105 Descending Potomac TRACON
Thu 06:41:08 AM 38.7167 -76.9333 165° South 177 204 4,000 -579 Descending Potomac TRACON
Thu 06:42:02 AM 38.6667 -76.9333 180° South 175 201 4,000  Level Potomac TRACON
Thu 06:43:08 AM 38.6167 -76.9333 180° South 178 205 4,000  Level Potomac TRACON
Thu 06:44:02 AM 38.5667 -76.9167 165° South 179 206 4,000 -421 Level Potomac TRACON
Thu 06:45:02 AM 38.5333 -76.9500 218° Southwest 183 211 3,200 -500 Descending Potomac TRACON
Thu 06:46:02 AM 38.5500 -77.0000 293° West 187 215 3,000 -105 Descending Potomac TRACON
Thu 06:46:56 AM 38.6000 -77.0167 345° North 193 222 3,000  Level Potomac TRACON
Thu 06:47:56 AM 38.6667 -77.0167 360° North 192 221 3,000 -250 Level Potomac TRACON
Thu 06:48:56 AM 38.7167 -77.0167 360° North 189 217 2,500 -500 Descending Potomac TRACON

Login

Don't have an account? Register now (free) for customized features, flight alerts, and more!